Time;durP1;ratioP1;P1;durP2;ratioP2;P2;SDS_P1;SDS_P2;PMS_P1;PMS_P2;Temp;Humidity;BMP_temperature;BMP_pressure;BME280_temperature;BME280_humidity;BME280_pressure;Samples;Min_cycle;Max_cycle;Signal;HPM_P1;HPM_P2
2021/12/13 00:01:45;;;;;;;;;;;2.40;99.90;;;;;;5031766;28;20523;-82
2021/12/13 00:04:16;;;;;;;;;;;2.40;99.90;;;;;;5047760;28;20012;-81
2021/12/13 00:07:08;;;;;;;;;;;2.50;99.90;;;;;;5051806;28;20404;-82
2021/12/13 00:09:40;;;;;;;;;;;2.50;99.90;;;;;;5044724;28;19923;-82
2021/12/13 00:12:06;;;;;;;;;;;2.40;99.90;;;;;;5055864;28;19919;-82
2021/12/13 00:14:37;;;;;;;;;;;2.50;99.90;;;;;;5037967;28;20001;-82
2021/12/13 00:17:11;;;;;;;;;;;2.40;99.90;;;;;;5051823;28;19913;-81
2021/12/13 00:19:39;;;;;;;;;;;2.50;99.90;;;;;;5038279;28;19916;-82
2021/12/13 00:22:07;;;;;;;;;;;2.50;99.90;;;;;;5051799;28;19928;-82
2021/12/13 00:24:36;;;;;;;;;;;2.50;99.90;;;;;;5032053;28;19920;-81
2021/12/13 00:27:05;;;;;;;;;;;2.50;99.90;;;;;;5051167;28;19913;-82
2021/12/13 00:29:37;;;;;;;;;;;2.50;99.90;;;;;;5064321;28;20015;-82
2021/12/13 00:32:38;;;;;;;;;;;2.50;99.90;;;;;;5035001;28;19919;-81
2021/12/13 00:35:07;;;;;;;;;;;2.50;99.90;;;;;;5030645;28;20363;-82
2021/12/13 00:37:38;;;;;;;;;;;2.50;99.90;;;;;;5024405;28;19960;-81
2021/12/13 00:40:17;;;;;;;;;;;2.50;99.90;;;;;;5050152;28;19920;-81
2021/12/13 00:42:45;;;;;;;;;;;2.50;99.90;;;;;;5051636;28;19959;-81
2021/12/13 00:45:12;;;;;;;;;;;2.50;99.90;;;;;;5032494;28;19912;-82
2021/12/13 00:47:39;;;;;;;;;;;2.50;99.90;;;;;;5037122;28;20009;-81
2021/12/13 00:50:08;;;;;;;;;;;2.50;99.90;;;;;;5051149;28;19924;-81
2021/12/13 00:52:34;;;;;;;;;;;2.50;99.90;;;;;;5038402;28;19921;-81
2021/12/13 00:55:00;;;;;;;;;;;2.50;99.90;;;;;;5055202;28;19916;-80
2021/12/13 00:57:29;;;;;;;;;;;2.50;99.90;;;;;;5030076;28;20405;-80
2021/12/13 00:59:57;;;;;;;;;;;2.50;99.90;;;;;;5051457;28;19967;-81
2021/12/13 01:02:28;;;;;;;;;;;2.60;99.90;;;;;;5055224;28;19923;-80
2021/12/13 01:04:56;;;;;;;;;;;2.60;99.90;;;;;;5055350;28;19991;-80
2021/12/13 01:07:41;;;;;;;;;;;2.60;99.90;;;;;;5038317;28;20007;-81
2021/12/13 01:10:25;;;;;;;;;;;2.60;99.90;;;;;;5045373;28;20338;-80
2021/12/13 01:12:52;;;;;;;;;;;2.50;99.90;;;;;;5035939;28;20379;-80
2021/12/13 01:15:28;;;;;;;;;;;2.50;99.90;;;;;;5055215;28;19958;-80
2021/12/13 01:18:02;;;;;;;;;;;2.50;99.90;;;;;;5036369;28;19924;-80
2021/12/13 01:20:55;;;;;;;;;;;2.60;99.90;;;;;;5054359;28;20891;-80
2021/12/13 01:23:38;;;;;;;;;;;2.50;99.90;;;;;;5052836;28;19920;-80
2021/12/13 01:26:25;;;;;;;;;;;2.50;99.90;;;;;;5040785;28;20007;-80
2021/12/13 01:28:55;;;;;;;;;;;2.50;99.90;;;;;;5053436;28;19912;-80
2021/12/13 01:31:25;;;;;;;;;;;2.50;99.90;;;;;;5035670;28;19912;-81
2021/12/13 01:33:51;;;;;;;;;;;2.50;99.90;;;;;;5070709;28;19958;-80
2021/12/13 01:36:21;;;;;;;;;;;2.50;99.90;;;;;;5031232;28;19923;-80
2021/12/13 01:38:52;;;;;;;;;;;2.50;99.90;;;;;;5035360;28;19920;-81
2021/12/13 01:41:21;;;;;;;;;;;2.60;99.90;;;;;;5018142;28;19921;-81
2021/12/13 01:43:49;;;;;;;;;;;2.50;99.90;;;;;;5073073;28;19962;-81
2021/12/13 01:46:15;;;;;;;;;;;2.60;99.90;;;;;;5073482;28;20000;-80
2021/12/13 01:48:43;;;;;;;;;;;2.60;99.90;;;;;;5053754;28;20074;-81
2021/12/13 01:51:11;;;;;;;;;;;2.60;99.90;;;;;;5037289;28;19913;-80
2021/12/13 01:53:37;;;;;;;;;;;2.60;99.90;;;;;;5073394;28;20007;-81
2021/12/13 01:56:10;;;;;;;;;;;2.60;99.90;;;;;;5035024;28;19963;-81
2021/12/13 01:58:41;;;;;;;;;;;2.60;99.90;;;;;;5048819;28;20406;-81
2021/12/13 02:01:11;;;;;;;;;;;2.60;99.90;;;;;;5048921;28;19978;-81
2021/12/13 02:03:48;;;;;;;;;;;2.60;99.90;;;;;;5052667;28;19912;-82
2021/12/13 02:06:20;;;;;;;;;;;2.60;99.90;;;;;;5062360;28;19920;-80
2021/12/13 02:08:50;;;;;;;;;;;2.70;99.90;;;;;;5054413;28;19927;-80
2021/12/13 02:11:16;;;;;;;;;;;2.60;99.90;;;;;;5048126;28;19999;-80
2021/12/13 02:14:03;;;;;;;;;;;2.60;99.90;;;;;;5043488;28;19917;-80
2021/12/13 02:19:20;;;;;;;;;;;2.60;99.90;;;;;;5065342;28;19916;-81
2021/12/13 02:21:48;;;;;;;;;;;2.60;99.90;;;;;;5048968;28;20382;-80
2021/12/13 02:24:14;;;;;;;;;;;2.60;99.90;;;;;;5053779;28;20418;-80
2021/12/13 02:26:42;;;;;;;;;;;2.60;99.90;;;;;;5037003;28;19917;-80
2021/12/13 02:29:16;;;;;;;;;;;2.60;99.90;;;;;;5037160;28;19921;-80
2021/12/13 02:31:42;;;;;;;;;;;2.60;99.90;;;;;;5070525;28;20393;-81
2021/12/13 02:34:09;;;;;;;;;;;2.60;99.90;;;;;;5053445;28;19916;-80
2021/12/13 02:36:37;;;;;;;;;;;2.60;99.90;;;;;;5035582;28;19917;-80
2021/12/13 02:39:08;;;;;;;;;;;2.70;99.90;;;;;;5052861;28;19917;-82
2021/12/13 02:41:34;;;;;;;;;;;2.70;99.90;;;;;;5035811;28;19928;-81
2021/12/13 02:44:04;;;;;;;;;;;2.60;99.90;;;;;;5037463;28;20291;-80
2021/12/13 02:46:30;;;;;;;;;;;2.70;99.90;;;;;;5052936;28;20438;-80
2021/12/13 02:48:58;;;;;;;;;;;2.70;99.90;;;;;;5053079;28;19916;-80
2021/12/13 02:51:30;;;;;;;;;;;2.70;99.90;;;;;;5053249;28;19920;-80
2021/12/13 02:53:58;;;;;;;;;;;2.70;99.90;;;;;;5049444;28;19943;-81
2021/12/13 02:56:29;;;;;;;;;;;2.70;99.90;;;;;;5053336;28;20011;-80
2021/12/13 02:58:56;;;;;;;;;;;2.70;99.90;;;;;;5034521;28;19971;-80
2021/12/13 03:01:29;;;;;;;;;;;2.70;99.90;;;;;;5036241;28;19917;-80
2021/12/13 03:03:57;;;;;;;;;;;2.70;99.90;;;;;;5053329;28;19958;-80
2021/12/13 03:06:25;;;;;;;;;;;2.70;99.90;;;;;;5036475;28;20384;-80
2021/12/13 03:08:58;;;;;;;;;;;2.60;99.90;;;;;;5032209;28;20329;-80
2021/12/13 03:11:29;;;;;;;;;;;2.60;99.90;;;;;;5046576;28;19924;-80
2021/12/13 03:13:59;;;;;;;;;;;2.60;99.90;;;;;;5034871;28;19916;-81
2021/12/13 03:16:36;;;;;;;;;;;2.70;99.90;;;;;;5033295;28;20003;-81
2021/12/13 03:19:06;;;;;;;;;;;2.80;99.90;;;;;;5052435;28;19916;-82
2021/12/13 03:21:50;;;;;;;;;;;2.80;99.90;;;;;;5051871;28;19920;-81
2021/12/13 03:24:19;;;;;;;;;;;2.80;99.90;;;;;;5052931;28;19966;-80
2021/12/13 03:27:03;;;;;;;;;;;2.80;99.90;;;;;;5053002;28;19916;-80
2021/12/13 03:29:39;;;;;;;;;;;2.70;99.90;;;;;;5033823;28;19986;-81
2021/12/13 03:32:07;;;;;;;;;;;2.70;99.90;;;;;;5052876;28;19912;-80
2021/12/13 03:34:35;;;;;;;;;;;2.70;99.90;;;;;;5052865;28;19958;-80
2021/12/13 03:37:04;;;;;;;;;;;2.70;99.90;;;;;;5052888;28;19919;-80
2021/12/13 03:39:32;;;;;;;;;;;2.70;99.90;;;;;;5051129;28;19913;-80
2021/12/13 03:41:59;;;;;;;;;;;2.70;99.90;;;;;;5052406;28;20418;-80
2021/12/13 03:44:31;;;;;;;;;;;2.70;99.90;;;;;;5033778;28;20016;-80
2021/12/13 03:47:00;;;;;;;;;;;2.70;99.90;;;;;;5034842;28;20387;-80
2021/12/13 03:49:26;;;;;;;;;;;2.70;99.90;;;;;;5051090;28;19971;-79
2021/12/13 03:51:55;;;;;;;;;;;2.80;99.90;;;;;;5049829;28;19965;-81
2021/12/13 03:54:21;;;;;;;;;;;2.80;99.90;;;;;;5052626;28;19912;-81
2021/12/13 03:56:51;;;;;;;;;;;2.70;99.90;;;;;;5035871;28;20005;-80
2021/12/13 03:59:19;;;;;;;;;;;2.70;99.90;;;;;;5069200;28;19917;-80
2021/12/13 04:01:47;;;;;;;;;;;2.70;99.90;;;;;;5037791;28;19947;-80
2021/12/13 04:04:15;;;;;;;;;;;2.70;99.90;;;;;;5052516;28;20299;-80
2021/12/13 04:06:47;;;;;;;;;;;2.70;99.90;;;;;;5052431;28;19913;-80
2021/12/13 04:09:13;;;;;;;;;;;2.70;99.90;;;;;;5042595;28;20554;-80
2021/12/13 04:11:41;;;;;;;;;;;2.70;99.90;;;;;;5052753;28;19913;-80
2021/12/13 04:14:13;;;;;;;;;;;2.70;99.90;;;;;;5035921;28;19916;-80
2021/12/13 04:16:50;;;;;;;;;;;2.70;99.90;;;;;;5036090;28;20340;-81
2021/12/13 04:19:18;;;;;;;;;;;2.70;99.90;;;;;;5051687;28;19916;-81
2021/12/13 04:21:57;;;;;;;;;;;2.70;99.90;;;;;;5040416;28;19943;-80
2021/12/13 04:24:29;;;;;;;;;;;2.70;99.90;;;;;;5067980;28;19916;-80
2021/12/13 04:26:57;;;;;;;;;;;2.70;99.90;;;;;;5036305;28;20540;-80
2021/12/13 04:29:26;;;;;;;;;;;2.70;99.90;;;;;;5044935;28;20293;-80
2021/12/13 04:31:53;;;;;;;;;;;2.70;99.90;;;;;;5039392;28;19931;-80
2021/12/13 04:34:20;;;;;;;;;;;2.70;99.90;;;;;;5039348;28;19928;-80
2021/12/13 04:36:49;;;;;;;;;;;2.70;99.90;;;;;;5038494;28;19917;-80
2021/12/13 04:39:32;;;;;;;;;;;2.70;99.90;;;;;;5055800;28;19912;-81
2021/12/13 04:41:59;;;;;;;;;;;2.70;99.90;;;;;;5055587;28;19968;-80
2021/12/13 04:44:43;;;;;;;;;;;2.70;99.90;;;;;;5056100;28;19969;-80
2021/12/13 04:47:12;;;;;;;;;;;2.70;99.90;;;;;;5055603;28;19912;-80
2021/12/13 04:49:39;;;;;;;;;;;2.70;99.90;;;;;;5062886;28;19912;-81
2021/12/13 04:52:06;;;;;;;;;;;2.70;99.90;;;;;;5039312;28;19921;-80
2021/12/13 04:54:33;;;;;;;;;;;2.70;99.90;;;;;;5039384;28;19912;-80
2021/12/13 04:57:00;;;;;;;;;;;2.80;99.90;;;;;;5039116;28;20366;-80
2021/12/13 04:59:26;;;;;;;;;;;2.70;99.90;;;;;;5054660;28;19928;-81
2021/12/13 05:01:55;;;;;;;;;;;2.80;99.90;;;;;;5063374;28;19916;-80
2021/12/13 05:04:22;;;;;;;;;;;2.80;99.90;;;;;;5047393;28;19955;-81
2021/12/13 05:06:49;;;;;;;;;;;2.70;99.90;;;;;;5072378;28;20001;-80
2021/12/13 05:09:16;;;;;;;;;;;2.80;99.90;;;;;;5034033;28;19927;-81
2021/12/13 05:11:44;;;;;;;;;;;2.80;99.90;;;;;;5043389;28;19916;-81
2021/12/13 05:14:12;;;;;;;;;;;2.80;99.90;;;;;;5051148;28;20695;-81
2021/12/13 05:16:38;;;;;;;;;;;2.80;99.90;;;;;;5080891;22;20020;-80
2021/12/13 05:19:05;;;;;;;;;;;2.80;99.90;;;;;;5051266;28;19969;-83
2021/12/13 05:21:34;;;;;;;;;;;2.80;99.90;;;;;;5034210;28;20382;-81
2021/12/13 05:24:01;;;;;;;;;;;2.80;99.90;;;;;;5053327;28;19919;-80
2021/12/13 05:26:34;;;;;;;;;;;2.80;99.90;;;;;;5029715;28;19927;-79
2021/12/13 05:29:02;;;;;;;;;;;2.80;99.90;;;;;;5036496;28;19921;-80
2021/12/13 05:31:28;;;;;;;;;;;2.80;99.90;;;;;;5059271;28;19962;-82
2021/12/13 05:34:01;;;;;;;;;;;2.80;99.90;;;;;;5072402;28;19922;-82
2021/12/13 05:36:29;;;;;;;;;;;2.80;99.90;;;;;;5052813;28;19947;-79
2021/12/13 05:39:06;;;;;;;;;;;2.80;99.90;;;;;;5050290;28;19909;-81
2021/12/13 05:41:32;;;;;;;;;;;2.80;99.90;;;;;;5071016;28;20412;-80
2021/12/13 05:43:59;;;;;;;;;;;2.80;99.90;;;;;;5069612;28;19916;-80
2021/12/13 05:46:32;;;;;;;;;;;2.80;99.90;;;;;;5051959;28;20342;-80
2021/12/13 05:49:01;;;;;;;;;;;2.80;99.90;;;;;;5071088;28;20030;-80
2021/12/13 05:51:26;;;;;;;;;;;2.80;99.90;;;;;;5055298;28;19982;-81
2021/12/13 05:53:55;;;;;;;;;;;2.80;99.90;;;;;;5071717;28;20349;-81
2021/12/13 05:56:21;;;;;;;;;;;2.80;99.90;;;;;;5052684;28;19928;-80
2021/12/13 05:58:49;;;;;;;;;;;2.80;99.90;;;;;;5069349;28;19917;-81
2021/12/13 06:01:24;;;;;;;;;;;2.80;99.90;;;;;;5054749;28;20405;-81
2021/12/13 06:03:52;;;;;;;;;;;2.90;99.90;;;;;;5070596;28;20313;-80
2021/12/13 06:06:27;;;;;;;;;;;2.80;99.90;;;;;;5070600;28;19912;-80
2021/12/13 06:08:54;;;;;;;;;;;2.90;99.90;;;;;;5049426;28;19912;-80
2021/12/13 06:11:34;;;;;;;;;;;2.80;99.90;;;;;;5054015;28;20053;-81
2021/12/13 06:14:15;;;;;;;;;;;2.90;99.90;;;;;;5053564;28;19920;-82
2021/12/13 06:16:48;;;;;;;;;;;2.80;99.90;;;;;;5071535;28;19930;-79
2021/12/13 06:19:29;;;;;;;;;;;2.80;99.90;;;;;;5069724;28;19920;-81
2021/12/13 06:22:00;;;;;;;;;;;2.90;99.90;;;;;;5071218;28;19924;-79
2021/12/13 06:24:27;;;;;;;;;;;2.90;99.90;;;;;;5068897;28;19913;-82
2021/12/13 06:27:04;;;;;;;;;;;2.90;99.90;;;;;;5068688;28;19916;-80
2021/12/13 06:29:46;;;;;;;;;;;2.90;99.90;;;;;;5053487;28;19923;-81
2021/12/13 06:32:34;;;;;;;;;;;2.90;99.90;;;;;;5071169;28;19912;-81
2021/12/13 06:35:19;;;;;;;;;;;2.80;99.90;;;;;;5070325;28;19973;-82
2021/12/13 06:37:45;;;;;;;;;;;2.80;99.90;;;;;;5068125;28;20306;-78
2021/12/13 06:40:26;;;;;;;;;;;2.90;99.90;;;;;;5052483;28;19913;-82
2021/12/13 06:42:52;;;;;;;;;;;2.90;99.90;;;;;;5051030;28;19917;-81
2021/12/13 06:45:20;;;;;;;;;;;2.90;99.90;;;;;;5053558;28;19966;-81
2021/12/13 06:47:47;;;;;;;;;;;3.00;99.90;;;;;;5070611;28;19970;-82
2021/12/13 06:50:18;;;;;;;;;;;2.90;99.90;;;;;;5068372;28;19958;-78
2021/12/13 06:52:44;;;;;;;;;;;2.90;99.90;;;;;;5054456;28;19912;-77
2021/12/13 06:55:12;;;;;;;;;;;2.90;99.90;;;;;;5082173;28;19912;-79
2021/12/13 06:57:40;;;;;;;;;;;2.90;99.90;;;;;;5067629;28;19935;-80
2021/12/13 07:00:05;;;;;;;;;;;2.90;99.90;;;;;;5047173;28;20387;-80
2021/12/13 07:02:39;;;;;;;;;;;2.90;99.90;;;;;;5072053;28;19931;-79
2021/12/13 07:05:07;;;;;;;;;;;2.90;99.90;;;;;;5070291;28;19920;-81
2021/12/13 07:07:35;;;;;;;;;;;2.90;99.90;;;;;;5071971;28;19917;-81
2021/12/13 07:10:04;;;;;;;;;;;2.90;99.90;;;;;;5054728;28;19921;-81
2021/12/13 07:12:31;;;;;;;;;;;2.90;99.90;;;;;;5071703;28;19923;-81
2021/12/13 07:14:57;;;;;;;;;;;3.00;99.90;;;;;;5072481;28;19924;-80
2021/12/13 07:17:30;;;;;;;;;;;3.00;99.90;;;;;;5052250;28;20871;-81
2021/12/13 07:19:57;;;;;;;;;;;3.00;99.90;;;;;;5073177;28;19922;-80
2021/12/13 07:22:25;;;;;;;;;;;3.00;99.90;;;;;;5043386;28;19928;-80
2021/12/13 07:25:03;;;;;;;;;;;3.00;99.90;;;;;;5075006;28;19926;-81
2021/12/13 07:27:30;;;;;;;;;;;2.90;99.90;;;;;;5065801;28;19952;-81
2021/12/13 07:30:16;;;;;;;;;;;2.90;99.90;;;;;;5068351;28;19947;-81
2021/12/13 07:32:47;;;;;;;;;;;2.90;99.90;;;;;;5066830;28;19913;-80
2021/12/13 07:35:16;;;;;;;;;;;3.00;99.90;;;;;;5068051;28;19912;-80
2021/12/13 07:37:42;;;;;;;;;;;2.90;99.90;;;;;;5048113;28;19912;-80
2021/12/13 07:40:19;;;;;;;;;;;3.00;99.90;;;;;;5067832;28;19913;-82
2021/12/13 07:42:50;;;;;;;;;;;3.00;99.90;;;;;;5049656;28;20056;-81
2021/12/13 07:45:31;;;;;;;;;;;3.00;99.90;;;;;;5069219;28;19917;-82
2021/12/13 07:47:58;;;;;;;;;;;3.00;99.90;;;;;;5066221;28;20435;-82
2021/12/13 07:50:24;;;;;;;;;;;3.10;99.90;;;;;;5067124;28;19932;-81
2021/12/13 07:52:54;;;;;;;;;;;3.10;99.90;;;;;;5066503;28;19932;-81
2021/12/13 07:55:22;;;;;;;;;;;3.10;99.90;;;;;;5057608;28;20011;-83
2021/12/13 07:57:48;;;;;;;;;;;3.10;99.90;;;;;;5071699;28;19921;-83
2021/12/13 08:00:23;;;;;;;;;;;3.10;99.90;;;;;;5056726;28;19912;-82
2021/12/13 08:02:56;;;;;;;;;;;3.10;99.90;;;;;;5056340;28;19939;-82
2021/12/13 08:05:25;;;;;;;;;;;3.20;99.90;;;;;;5073881;28;19920;-82
2021/12/13 08:07:54;;;;;;;;;;;3.30;99.90;;;;;;5071745;28;19956;-81
2021/12/13 08:10:19;;;;;;;;;;;3.30;99.90;;;;;;5070105;28;19925;-81
2021/12/13 08:12:47;;;;;;;;;;;3.30;99.90;;;;;;5074729;28;20572;-83
2021/12/13 08:15:18;;;;;;;;;;;3.30;99.90;;;;;;5073633;28;19919;-82
2021/12/13 08:17:49;;;;;;;;;;;3.30;99.90;;;;;;5052219;28;19920;-82
2021/12/13 08:20:21;;;;;;;;;;;3.30;99.90;;;;;;5071350;28;19923;-81
2021/12/13 08:22:47;;;;;;;;;;;3.40;99.90;;;;;;5074659;28;19927;-82
2021/12/13 08:25:15;;;;;;;;;;;3.40;99.90;;;;;;5056231;28;20290;-83
2021/12/13 08:27:42;;;;;;;;;;;3.40;99.90;;;;;;5071797;28;20023;-83
2021/12/13 08:30:08;;;;;;;;;;;3.40;99.90;;;;;;5054680;28;19917;-81
2021/12/13 08:32:34;;;;;;;;;;;3.40;99.90;;;;;;5069437;28;19935;-82
2021/12/13 08:35:00;;;;;;;;;;;3.50;99.90;;;;;;5073709;28;19995;-82
2021/12/13 08:37:36;;;;;;;;;;;3.50;99.90;;;;;;5052628;28;19916;-82
2021/12/13 08:40:09;;;;;;;;;;;3.60;99.90;;;;;;5065152;28;19919;-81
2021/12/13 08:42:39;;;;;;;;;;;3.60;99.90;;;;;;5069482;28;20074;-81
2021/12/13 08:45:30;;;;;;;;;;;3.70;99.90;;;;;;5070020;28;19919;-84
2021/12/13 08:47:58;;;;;;;;;;;3.70;99.90;;;;;;5072953;28;19912;-81
2021/12/13 08:50:25;;;;;;;;;;;3.70;99.90;;;;;;5067693;28;19909;-82
2021/12/13 08:52:56;;;;;;;;;;;3.80;99.90;;;;;;5052562;28;20457;-83
2021/12/13 08:55:27;;;;;;;;;;;3.80;99.90;;;;;;5067918;28;19916;-82
2021/12/13 08:57:59;;;;;;;;;;;3.90;99.90;;;;;;5063900;28;19991;-82
2021/12/13 09:00:35;;;;;;;;;;;3.90;99.90;;;;;;5039939;28;19917;-82
2021/12/13 09:03:01;;;;;;;;;;;4.00;99.90;;;;;;5051544;28;20321;-81
2021/12/13 09:05:34;;;;;;;;;;;4.00;99.90;;;;;;5062608;28;19913;-82
2021/12/13 09:08:05;;;;;;;;;;;4.10;99.90;;;;;;5067808;28;20543;-81
2021/12/13 09:10:36;;;;;;;;;;;4.10;99.90;;;;;;5062242;28;20385;-81
2021/12/13 09:13:02;;;;;;;;;;;4.10;99.90;;;;;;5052448;28;19913;-81
2021/12/13 09:15:30;;;;;;;;;;;4.20;99.90;;;;;;5069302;28;19924;-81
2021/12/13 09:17:56;;;;;;;;;;;4.20;99.90;;;;;;5066153;28;20397;-82
2021/12/13 09:20:24;;;;;;;;;;;4.30;99.90;;;;;;5055710;28;20032;-82
2021/12/13 09:22:55;;;;;;;;;;;4.30;99.90;;;;;;5054059;28;20588;-81
2021/12/13 09:25:30;;;;;;;;;;;4.40;99.90;;;;;;5052347;28;19917;-82
2021/12/13 09:28:03;;;;;;;;;;;4.40;99.90;;;;;;5069037;28;19920;-82
2021/12/13 09:30:47;;;;;;;;;;;4.50;99.90;;;;;;5061847;28;19924;-81
2021/12/13 09:33:22;;;;;;;;;;;4.60;99.90;;;;;;5052201;28;19920;-80
2021/12/13 09:36:08;;;;;;;;;;;4.60;99.90;;;;;;5063741;28;20386;-83
2021/12/13 09:38:40;;;;;;;;;;;4.60;99.90;;;;;;5065057;28;19916;-82
2021/12/13 09:41:09;;;;;;;;;;;4.60;99.90;;;;;;5072580;28;19920;-81
2021/12/13 09:43:40;;;;;;;;;;;4.70;99.90;;;;;;5073003;28;19959;-82
2021/12/13 09:46:07;;;;;;;;;;;4.70;99.90;;;;;;5070591;28;19920;-81
2021/12/13 09:48:36;;;;;;;;;;;4.80;99.90;;;;;;5072200;28;19958;-81
2021/12/13 09:51:07;;;;;;;;;;;4.80;99.90;;;;;;5055222;28;20480;-80
2021/12/13 09:53:35;;;;;;;;;;;4.70;99.90;;;;;;5071243;28;20429;-80
2021/12/13 09:56:04;;;;;;;;;;;4.80;99.90;;;;;;5069148;28;19920;-79
2021/12/13 09:59:05;;;;;;;;;;;4.70;99.90;;;;;;5067084;28;19912;-79
2021/12/13 10:01:35;;;;;;;;;;;4.70;99.90;;;;;;5013574;28;19927;-82
2021/12/13 10:04:04;;;;;;;;;;;4.60;99.90;;;;;;5069941;28;19917;-81
2021/12/13 10:06:32;;;;;;;;;;;4.60;99.90;;;;;;5067286;28;19919;-79
2021/12/13 10:09:30;;;;;;;;;;;4.60;99.90;;;;;;5068118;28;19921;-79
2021/12/13 10:11:58;;;;;;;;;;;4.70;99.90;;;;;;5020937;28;19966;-82
2021/12/13 10:14:27;;;;;;;;;;;4.70;99.90;;;;;;5054173;28;20008;-80
2021/12/13 10:16:55;;;;;;;;;;;4.70;99.90;;;;;;5070365;28;19917;-80
2021/12/13 10:19:32;;;;;;;;;;;4.70;99.90;;;;;;5067016;28;20131;-80
2021/12/13 10:21:58;;;;;;;;;;;4.70;99.90;;;;;;5051605;28;19920;-81
2021/12/13 10:24:26;;;;;;;;;;;4.70;99.90;;;;;;5070377;28;19923;-79
2021/12/13 10:26:54;;;;;;;;;;;4.70;99.90;;;;;;5070791;28;19912;-79
2021/12/13 10:29:19;;;;;;;;;;;4.70;99.90;;;;;;5070333;28;19916;-80
2021/12/13 10:31:51;;;;;;;;;;;4.70;99.90;;;;;;5069284;28;19913;-81
2021/12/13 10:34:19;;;;;;;;;;;4.70;99.90;;;;;;5061878;28;19959;-78
2021/12/13 10:36:48;;;;;;;;;;;4.70;99.90;;;;;;5064897;28;19920;-76
2021/12/13 10:39:19;;;;;;;;;;;4.70;99.90;;;;;;5069203;28;20271;-81
2021/12/13 10:41:46;;;;;;;;;;;4.80;99.90;;;;;;5069018;28;19916;-81
2021/12/13 10:44:14;;;;;;;;;;;4.80;99.90;;;;;;5050399;28;19916;-80
2021/12/13 10:46:44;;;;;;;;;;;4.80;99.90;;;;;;5044714;28;19913;-80
2021/12/13 10:49:14;;;;;;;;;;;4.90;99.90;;;;;;5036749;28;20181;-80
2021/12/13 10:51:42;;;;;;;;;;;4.90;99.90;;;;;;5061827;28;20304;-80
2021/12/13 10:54:12;;;;;;;;;;;4.90;99.90;;;;;;5050034;28;20389;-79
2021/12/13 10:56:42;;;;;;;;;;;4.90;99.90;;;;;;5045181;28;20568;-77
2021/12/13 10:59:15;;;;;;;;;;;5.00;99.90;;;;;;5064436;28;19917;-80
2021/12/13 11:01:43;;;;;;;;;;;5.00;99.90;;;;;;5048598;28;20015;-81
2021/12/13 11:04:10;;;;;;;;;;;5.00;99.90;;;;;;5049521;28;20394;-79
2021/12/13 11:06:38;;;;;;;;;;;5.00;99.90;;;;;;5048850;28;19924;-82
2021/12/13 11:09:05;;;;;;;;;;;5.10;99.90;;;;;;5067941;28;19920;-80
2021/12/13 11:11:34;;;;;;;;;;;5.10;99.90;;;;;;5074452;28;19927;-79
2021/12/13 11:14:02;;;;;;;;;;;5.20;99.90;;;;;;5046784;28;20482;-82
2021/12/13 11:16:34;;;;;;;;;;;5.20;99.90;;;;;;5059910;28;19974;-80
2021/12/13 11:19:00;;;;;;;;;;;5.30;99.90;;;;;;5064554;28;19912;-79
2021/12/13 11:21:28;;;;;;;;;;;5.40;99.90;;;;;;5044547;28;19986;-79
2021/12/13 11:23:54;;;;;;;;;;;5.40;99.90;;;;;;5049874;28;20463;-81
2021/12/13 11:26:22;;;;;;;;;;;5.50;99.90;;;;;;5056901;28;19970;-80
2021/12/13 11:28:48;;;;;;;;;;;5.50;99.90;;;;;;5024366;28;19932;-78
2021/12/13 11:31:22;;;;;;;;;;;5.50;99.90;;;;;;5070607;28;19913;-82
2021/12/13 11:33:57;;;;;;;;;;;5.50;99.90;;;;;;5066189;28;19916;-82
2021/12/13 11:36:42;;;;;;;;;;;5.50;99.90;;;;;;5044469;28;19959;-79
2021/12/13 11:39:10;;;;;;;;;;;5.60;99.90;;;;;;5048816;28;19919;-80
2021/12/13 11:41:49;;;;;;;;;;;5.70;99.90;;;;;;5047057;28;20427;-81
2021/12/13 11:44:35;;;;;;;;;;;5.70;99.90;;;;;;5060865;28;19912;-80
2021/12/13 11:47:00;;;;;;;;;;;5.70;99.90;;;;;;5047823;28;19924;-81
2021/12/13 11:49:39;;;;;;;;;;;5.70;99.90;;;;;;5065817;28;19962;-80
2021/12/13 11:52:24;;;;;;;;;;;5.70;99.90;;;;;;5082103;28;19921;-82
2021/12/13 11:55:08;;;;;;;;;;;5.70;99.90;;;;;;5057897;28;20382;-81
2021/12/13 11:57:34;;;;;;;;;;;5.70;99.90;;;;;;5060116;28;19956;-81
2021/12/13 12:00:07;;;;;;;;;;;5.70;99.90;;;;;;5061027;28;19947;-80
2021/12/13 12:02:33;;;;;;;;;;;5.70;99.90;;;;;;5049357;28;20440;-82
2021/12/13 12:05:08;;;;;;;;;;;5.70;99.90;;;;;;5064446;28;19917;-81
2021/12/13 12:08:00;;;;;;;;;;;5.70;99.90;;;;;;5064726;28;20516;-82
2021/12/13 12:10:25;;;;;;;;;;;5.80;99.90;;;;;;5064287;28;20393;-81
2021/12/13 12:13:06;;;;;;;;;;;5.80;99.90;;;;;;5064087;28;19908;-80
2021/12/13 12:15:33;;;;;;;;;;;5.80;99.90;;;;;;5068020;28;19913;-80
2021/12/13 12:18:00;;;;;;;;;;;5.90;99.90;;;;;;5045612;28;19920;-79
2021/12/13 12:20:47;;;;;;;;;;;5.80;99.90;;;;;;5064312;28;19912;-82
2021/12/13 12:23:43;;;;;;;;;;;5.80;99.90;;;;;;5064928;28;19927;-80
2021/12/13 12:26:09;;;;;;;;;;;5.80;99.90;;;;;;5033974;28;19924;-80
2021/12/13 12:28:36;;;;;;;;;;;5.70;99.90;;;;;;5049225;28;19920;-80
2021/12/13 12:31:02;;;;;;;;;;;5.80;99.90;;;;;;5063551;28;19917;-81
2021/12/13 12:33:30;;;;;;;;;;;5.80;99.90;;;;;;5068220;28;19912;-80
2021/12/13 12:35:57;;;;;;;;;;;5.80;99.90;;;;;;5065104;28;19955;-81
2021/12/13 12:38:24;;;;;;;;;;;5.80;99.90;;;;;;5060796;28;19919;-82
2021/12/13 12:41:05;;;;;;;;;;;5.90;99.90;;;;;;5058733;28;19965;-79
2021/12/13 12:43:35;;;;;;;;;;;5.80;99.90;;;;;;5081304;28;19916;-78
2021/12/13 12:46:06;;;;;;;;;;;5.70;99.90;;;;;;5068609;28;20353;-81
2021/12/13 12:48:37;;;;;;;;;;;5.70;99.90;;;;;;5068462;28;20143;-79
2021/12/13 12:51:05;;;;;;;;;;;5.70;99.90;;;;;;5068411;28;19920;-81
2021/12/13 12:53:34;;;;;;;;;;;5.70;99.90;;;;;;5048035;28;19917;-81
2021/12/13 12:56:20;;;;;;;;;;;5.60;99.90;;;;;;5070362;28;20394;-82
2021/12/13 12:58:45;;;;;;;;;;;5.60;99.90;;;;;;5066511;28;19917;-82
2021/12/13 13:01:23;;;;;;;;;;;5.60;99.90;;;;;;5052108;28;20015;-81
2021/12/13 13:03:49;;;;;;;;;;;5.60;99.90;;;;;;5052950;28;20013;-81
2021/12/13 13:06:23;;;;;;;;;;;5.60;99.90;;;;;;5068300;28;19952;-84
2021/12/13 13:08:50;;;;;;;;;;;5.60;99.90;;;;;;5069086;28;20007;-83
2021/12/13 13:11:29;;;;;;;;;;;5.70;99.90;;;;;;5070094;28;19998;-82
2021/12/13 13:14:15;;;;;;;;;;;5.60;99.90;;;;;;5047865;28;19912;-82
2021/12/13 13:16:49;;;;;;;;;;;5.60;99.90;;;;;;5061818;28;19935;-83
2021/12/13 13:19:25;;;;;;;;;;;5.70;99.90;;;;;;5052335;28;19916;-82
2021/12/13 13:21:51;;;;;;;;;;;5.70;99.90;;;;;;5069762;28;20009;-82
2021/12/13 13:24:18;;;;;;;;;;;5.80;99.90;;;;;;5058087;28;19912;-83
2021/12/13 13:26:46;;;;;;;;;;;5.80;99.90;;;;;;5065496;28;19917;-83
2021/12/13 13:29:15;;;;;;;;;;;5.80;99.90;;;;;;5069376;28;19923;-83
2021/12/13 13:31:44;;;;;;;;;;;5.80;99.90;;;;;;5071245;28;20081;-82
2021/12/13 13:34:14;;;;;;;;;;;5.70;99.90;;;;;;5068739;28;19923;-82
2021/12/13 13:36:51;;;;;;;;;;;5.70;99.90;;;;;;5074494;22;20402;-81
2021/12/13 13:39:26;;;;;;;;;;;5.60;99.90;;;;;;5030014;28;19939;-80
2021/12/13 13:41:53;;;;;;;;;;;5.60;99.90;;;;;;5031508;28;19931;-80
2021/12/13 13:44:22;;;;;;;;;;;5.50;99.90;;;;;;5051584;28;20030;-80
2021/12/13 13:46:57;;;;;;;;;;;5.50;99.90;;;;;;5051915;28;19928;-80
2021/12/13 13:49:23;;;;;;;;;;;5.50;99.90;;;;;;5070095;28;19923;-80
2021/12/13 13:51:48;;;;;;;;;;;5.50;99.90;;;;;;5089669;28;19916;-80
2021/12/13 13:54:14;;;;;;;;;;;5.50;99.90;;;;;;5070065;28;20004;-80
2021/12/13 13:56:42;;;;;;;;;;;5.50;99.90;;;;;;5068981;28;19916;-80
2021/12/13 13:59:13;;;;;;;;;;;5.60;99.90;;;;;;5052585;28;20702;-80
2021/12/13 14:01:39;;;;;;;;;;;5.50;99.90;;;;;;5070857;28;19916;-80
2021/12/13 14:04:25;;;;;;;;;;;5.50;99.90;;;;;;5083683;28;19912;-81
2021/12/13 14:06:54;;;;;;;;;;;5.50;99.90;;;;;;5048359;28;19916;-80
2021/12/13 14:09:22;;;;;;;;;;;5.50;99.90;;;;;;5087844;28;19920;-80
2021/12/13 14:11:54;;;;;;;;;;;5.50;99.90;;;;;;5071073;28;19924;-80
2021/12/13 14:14:21;;;;;;;;;;;5.50;99.90;;;;;;5088420;28;19958;-80
2021/12/13 14:16:50;;;;;;;;;;;5.50;99.90;;;;;;5051712;28;19916;-81
2021/12/13 14:19:30;;;;;;;;;;;5.50;99.90;;;;;;5051415;28;19920;-80
2021/12/13 14:21:56;;;;;;;;;;;5.50;99.90;;;;;;5040325;28;19920;-81
2021/12/13 14:24:51;;;;;;;;;;;5.50;99.90;;;;;;5098364;28;19968;-79
2021/12/13 14:27:17;;;;;;;;;;;5.50;99.90;;;;;;5075960;28;20553;-80
2021/12/13 14:29:43;;;;;;;;;;;5.50;99.90;;;;;;5053253;28;19913;-80
2021/12/13 14:32:09;;;;;;;;;;;5.50;99.90;;;;;;5065812;28;20348;-80
2021/12/13 14:34:36;;;;;;;;;;;5.50;99.90;;;;;;5073795;28;19995;-80
2021/12/13 14:37:02;;;;;;;;;;;5.50;99.90;;;;;;5067485;28;20032;-81
2021/12/13 14:39:30;;;;;;;;;;;5.50;99.90;;;;;;5090830;28;19916;-83
2021/12/13 14:41:59;;;;;;;;;;;5.50;99.90;;;;;;5064584;28;19923;-83
2021/12/13 14:44:31;;;;;;;;;;;5.50;99.90;;;;;;5065319;28;19912;-83
2021/12/13 14:47:17;;;;;;;;;;;5.50;99.90;;;;;;5070947;28;19930;-82
2021/12/13 14:49:53;;;;;;;;;;;5.50;99.90;;;;;;5081570;28;19913;-82
2021/12/13 14:52:21;;;;;;;;;;;5.50;99.90;;;;;;5078741;28;19912;-82
2021/12/13 14:54:48;;;;;;;;;;;5.50;99.90;;;;;;5062060;28;19916;-82
2021/12/13 14:57:16;;;;;;;;;;;5.40;99.90;;;;;;5058858;28;19924;-83